sensor_id;sensor_type;location;lat;lon;timestamp;temperature;humidity
43099;DHT22;28715;51.988;6.020;2023-05-10T00:02:04;15.60;99.90
43099;DHT22;28715;51.988;6.020;2023-05-10T00:04:29;15.60;99.90
43099;DHT22;28715;51.988;6.020;2023-05-10T00:06:55;15.60;99.90
43099;DHT22;28715;51.988;6.020;2023-05-10T00:09:20;15.60;99.90
43099;DHT22;28715;51.988;6.020;2023-05-10T00:11:46;15.60;99.90
43099;DHT22;28715;51.988;6.020;2023-05-10T00:14:12;15.60;99.90
43099;DHT22;28715;51.988;6.020;2023-05-10T00:16:37;15.60;99.90
43099;DHT22;28715;51.988;6.020;2023-05-10T00:19:03;15.60;99.90
43099;DHT22;28715;51.988;6.020;2023-05-10T00:21:28;15.60;99.90
43099;DHT22;28715;51.988;6.020;2023-05-10T00:23:54;15.70;99.90
43099;DHT22;28715;51.988;6.020;2023-05-10T00:26:20;15.70;99.90
43099;DHT22;28715;51.988;6.020;2023-05-10T00:28:45;15.70;99.90
43099;DHT22;28715;51.988;6.020;2023-05-10T00:31:11;15.70;99.90
43099;DHT22;28715;51.988;6.020;2023-05-10T00:33:37;15.70;99.90
43099;DHT22;28715;51.988;6.020;2023-05-10T00:36:02;15.70;99.90
43099;DHT22;28715;51.988;6.020;2023-05-10T00:38:28;15.70;99.90
43099;DHT22;28715;51.988;6.020;2023-05-10T00:40:54;15.70;99.90
43099;DHT22;28715;51.988;6.020;2023-05-10T00:43:20;15.70;99.90
43099;DHT22;28715;51.988;6.020;2023-05-10T00:45:45;15.80;99.90
43099;DHT22;28715;51.988;6.020;2023-05-10T00:48:11;15.80;99.90
43099;DHT22;28715;51.988;6.020;2023-05-10T00:50:37;15.80;99.90
43099;DHT22;28715;51.988;6.020;2023-05-10T00:53:05;15.80;99.90
43099;DHT22;28715;51.988;6.020;2023-05-10T00:55:31;15.80;99.90
43099;DHT22;28715;51.988;6.020;2023-05-10T00:57:57;15.80;99.90
43099;DHT22;28715;51.988;6.020;2023-05-10T01:00:23;15.80;99.90
43099;DHT22;28715;51.988;6.020;2023-05-10T01:02:48;15.80;99.90
43099;DHT22;28715;51.988;6.020;2023-05-10T01:05:15;15.80;99.90
43099;DHT22;28715;51.988;6.020;2023-05-10T01:07:40;15.80;99.90
43099;DHT22;28715;51.988;6.020;2023-05-10T01:10:07;15.80;99.90
43099;DHT22;28715;51.988;6.020;2023-05-10T01:12:39;15.80;99.90
43099;DHT22;28715;51.988;6.020;2023-05-10T01:15:06;15.80;99.90
43099;DHT22;28715;51.988;6.020;2023-05-10T01:17:34;15.80;99.90
43099;DHT22;28715;51.988;6.020;2023-05-10T01:20:00;15.80;99.90
43099;DHT22;28715;51.988;6.020;2023-05-10T01:30:46;15.80;99.90
43099;DHT22;28715;51.988;6.020;2023-05-10T01:36:03;15.80;99.90
43099;DHT22;28715;51.988;6.020;2023-05-10T01:38:42;15.80;99.90
43099;DHT22;28715;51.988;6.020;2023-05-10T01:41:33;15.80;99.90
43099;DHT22;28715;51.988;6.020;2023-05-10T01:46:37;15.80;99.90
43099;DHT22;28715;51.988;6.020;2023-05-10T01:49:08;15.80;99.90
43099;DHT22;28715;51.988;6.020;2023-05-10T01:51:42;15.80;99.90
43099;DHT22;28715;51.988;6.020;2023-05-10T01:54:12;15.80;99.90
43099;DHT22;28715;51.988;6.020;2023-05-10T01:56:39;15.80;99.90
43099;DHT22;28715;51.988;6.020;2023-05-10T01:59:11;15.80;99.90
43099;DHT22;28715;51.988;6.020;2023-05-10T02:01:38;15.80;99.90
43099;DHT22;28715;51.988;6.020;2023-05-10T02:04:07;15.80;99.90
43099;DHT22;28715;51.988;6.020;2023-05-10T02:06:34;15.90;99.90
43099;DHT22;28715;51.988;6.020;2023-05-10T02:09:01;15.80;99.90
43099;DHT22;28715;51.988;6.020;2023-05-10T02:11:29;15.80;99.90
43099;DHT22;28715;51.988;6.020;2023-05-10T02:13:57;15.80;99.90
43099;DHT22;28715;51.988;6.020;2023-05-10T02:16:25;15.80;99.90
43099;DHT22;28715;51.988;6.020;2023-05-10T02:18:52;15.80;99.90
43099;DHT22;28715;51.988;6.020;2023-05-10T02:21:20;15.80;99.90
43099;DHT22;28715;51.988;6.020;2023-05-10T02:23:48;15.80;99.90
43099;DHT22;28715;51.988;6.020;2023-05-10T02:26:16;15.80;99.90
43099;DHT22;28715;51.988;6.020;2023-05-10T02:28:42;15.80;99.90
43099;DHT22;28715;51.988;6.020;2023-05-10T02:31:09;15.80;99.90
43099;DHT22;28715;51.988;6.020;2023-05-10T02:33:37;15.80;99.90
43099;DHT22;28715;51.988;6.020;2023-05-10T02:36:04;15.80;99.90
43099;DHT22;28715;51.988;6.020;2023-05-10T02:38:31;15.80;99.90
43099;DHT22;28715;51.988;6.020;2023-05-10T02:40:59;15.80;99.90
43099;DHT22;28715;51.988;6.020;2023-05-10T02:43:25;15.80;99.90
43099;DHT22;28715;51.988;6.020;2023-05-10T02:45:51;15.80;99.90
43099;DHT22;28715;51.988;6.020;2023-05-10T02:48:17;15.80;99.90
43099;DHT22;28715;51.988;6.020;2023-05-10T02:50:47;15.80;99.90
43099;DHT22;28715;51.988;6.020;2023-05-10T02:53:21;15.80;99.90
43099;DHT22;28715;51.988;6.020;2023-05-10T02:55:50;15.80;99.90
43099;DHT22;28715;51.988;6.020;2023-05-10T02:58:17;15.70;99.90
43099;DHT22;28715;51.988;6.020;2023-05-10T03:00:44;15.70;99.90
43099;DHT22;28715;51.988;6.020;2023-05-10T03:03:10;15.70;99.90
43099;DHT22;28715;51.988;6.020;2023-05-10T03:05:36;15.70;99.90
43099;DHT22;28715;51.988;6.020;2023-05-10T03:08:01;15.70;99.90
43099;DHT22;28715;51.988;6.020;2023-05-10T03:10:29;15.70;99.90
43099;DHT22;28715;51.988;6.020;2023-05-10T03:15:54;15.70;99.90
43099;DHT22;28715;51.988;6.020;2023-05-10T03:18:23;15.60;99.90
43099;DHT22;28715;51.988;6.020;2023-05-10T03:20:59;15.60;99.90
43099;DHT22;28715;51.988;6.020;2023-05-10T03:23:30;15.60;99.90
43099;DHT22;28715;51.988;6.020;2023-05-10T03:25:59;15.60;99.90
43099;DHT22;28715;51.988;6.020;2023-05-10T03:28:27;15.50;99.90
43099;DHT22;28715;51.988;6.020;2023-05-10T03:30:56;15.50;99.90
43099;DHT22;28715;51.988;6.020;2023-05-10T03:33:22;15.50;99.90
43099;DHT22;28715;51.988;6.020;2023-05-10T03:35:48;15.50;99.90
43099;DHT22;28715;51.988;6.020;2023-05-10T03:38:13;15.50;99.90
43099;DHT22;28715;51.988;6.020;2023-05-10T03:40:39;15.50;99.90
43099;DHT22;28715;51.988;6.020;2023-05-10T03:43:05;15.50;99.90
43099;DHT22;28715;51.988;6.020;2023-05-10T03:45:30;15.40;99.90
43099;DHT22;28715;51.988;6.020;2023-05-10T03:47:57;15.40;99.90
43099;DHT22;28715;51.988;6.020;2023-05-10T03:50:23;15.50;99.90
43099;DHT22;28715;51.988;6.020;2023-05-10T03:52:49;15.40;99.90
43099;DHT22;28715;51.988;6.020;2023-05-10T03:55:14;15.40;99.90
43099;DHT22;28715;51.988;6.020;2023-05-10T03:57:40;15.40;99.90
43099;DHT22;28715;51.988;6.020;2023-05-10T04:00:06;15.40;99.90
43099;DHT22;28715;51.988;6.020;2023-05-10T04:02:32;15.30;99.90
43099;DHT22;28715;51.988;6.020;2023-05-10T04:04:57;15.30;99.90
43099;DHT22;28715;51.988;6.020;2023-05-10T04:07:23;15.30;99.90
43099;DHT22;28715;51.988;6.020;2023-05-10T04:09:49;15.30;99.90
43099;DHT22;28715;51.988;6.020;2023-05-10T04:12:14;15.30;99.90
43099;DHT22;28715;51.988;6.020;2023-05-10T04:14:40;15.30;99.90
43099;DHT22;28715;51.988;6.020;2023-05-10T04:17:06;15.30;99.90
43099;DHT22;28715;51.988;6.020;2023-05-10T04:19:32;15.30;99.90
43099;DHT22;28715;51.988;6.020;2023-05-10T04:21:58;15.30;99.90
43099;DHT22;28715;51.988;6.020;2023-05-10T04:24:23;15.30;99.90
43099;DHT22;28715;51.988;6.020;2023-05-10T04:26:49;15.30;99.90
43099;DHT22;28715;51.988;6.020;2023-05-10T04:29:15;15.30;99.90
43099;DHT22;28715;51.988;6.020;2023-05-10T04:31:40;15.30;99.90
43099;DHT22;28715;51.988;6.020;2023-05-10T04:34:06;15.30;99.90
43099;DHT22;28715;51.988;6.020;2023-05-10T04:36:31;15.30;99.90
43099;DHT22;28715;51.988;6.020;2023-05-10T04:39:02;15.30;99.90
43099;DHT22;28715;51.988;6.020;2023-05-10T04:41:30;15.20;99.90
43099;DHT22;28715;51.988;6.020;2023-05-10T04:43:56;15.30;99.90
43099;DHT22;28715;51.988;6.020;2023-05-10T04:46:22;15.20;99.90
43099;DHT22;28715;51.988;6.020;2023-05-10T04:48:47;15.20;99.90
43099;DHT22;28715;51.988;6.020;2023-05-10T04:51:13;15.20;99.90
43099;DHT22;28715;51.988;6.020;2023-05-10T04:53:39;15.20;99.90
43099;DHT22;28715;51.988;6.020;2023-05-10T04:56:04;15.20;99.90
43099;DHT22;28715;51.988;6.020;2023-05-10T04:58:30;15.20;99.90
43099;DHT22;28715;51.988;6.020;2023-05-10T05:00:56;15.20;99.90
43099;DHT22;28715;51.988;6.020;2023-05-10T05:03:21;15.20;99.90
43099;DHT22;28715;51.988;6.020;2023-05-10T05:05:47;15.20;99.90
43099;DHT22;28715;51.988;6.020;2023-05-10T05:08:13;15.20;99.90
43099;DHT22;28715;51.988;6.020;2023-05-10T05:10:38;15.20;99.90
43099;DHT22;28715;51.988;6.020;2023-05-10T05:13:04;15.20;99.90
43099;DHT22;28715;51.988;6.020;2023-05-10T05:15:29;15.20;99.90
43099;DHT22;28715;51.988;6.020;2023-05-10T05:17:56;15.20;99.90
43099;DHT22;28715;51.988;6.020;2023-05-10T05:20:21;15.20;99.90
43099;DHT22;28715;51.988;6.020;2023-05-10T05:22:47;15.30;99.90
43099;DHT22;28715;51.988;6.020;2023-05-10T05:25:13;15.30;99.90
43099;DHT22;28715;51.988;6.020;2023-05-10T05:27:38;15.30;99.90
43099;DHT22;28715;51.988;6.020;2023-05-10T05:30:04;15.30;99.90
43099;DHT22;28715;51.988;6.020;2023-05-10T05:32:30;15.30;99.90
43099;DHT22;28715;51.988;6.020;2023-05-10T05:34:56;15.30;99.90
43099;DHT22;28715;51.988;6.020;2023-05-10T05:37:21;15.30;99.90
43099;DHT22;28715;51.988;6.020;2023-05-10T05:39:48;15.40;99.90
43099;DHT22;28715;51.988;6.020;2023-05-10T05:42:14;15.40;99.90
43099;DHT22;28715;51.988;6.020;2023-05-10T05:44:40;15.40;99.90
43099;DHT22;28715;51.988;6.020;2023-05-10T05:47:06;15.40;99.90
43099;DHT22;28715;51.988;6.020;2023-05-10T05:49:32;15.40;99.90
43099;DHT22;28715;51.988;6.020;2023-05-10T05:52:01;15.50;99.90
43099;DHT22;28715;51.988;6.020;2023-05-10T05:54:27;15.50;99.90
43099;DHT22;28715;51.988;6.020;2023-05-10T05:56:57;15.50;99.90
43099;DHT22;28715;51.988;6.020;2023-05-10T05:59:23;15.50;99.90
43099;DHT22;28715;51.988;6.020;2023-05-10T06:01:48;15.60;99.90
43099;DHT22;28715;51.988;6.020;2023-05-10T06:04:14;15.60;99.90
43099;DHT22;28715;51.988;6.020;2023-05-10T06:06:40;15.70;99.90
43099;DHT22;28715;51.988;6.020;2023-05-10T06:09:05;15.70;99.90
43099;DHT22;28715;51.988;6.020;2023-05-10T06:11:31;15.80;99.90
43099;DHT22;28715;51.988;6.020;2023-05-10T06:14:00;15.80;99.90
43099;DHT22;28715;51.988;6.020;2023-05-10T06:16:25;15.90;99.90
43099;DHT22;28715;51.988;6.020;2023-05-10T06:18:51;15.90;99.90
43099;DHT22;28715;51.988;6.020;2023-05-10T06:21:17;15.90;99.90
43099;DHT22;28715;51.988;6.020;2023-05-10T06:23:42;16.00;99.90
43099;DHT22;28715;51.988;6.020;2023-05-10T06:26:09;16.00;99.90
43099;DHT22;28715;51.988;6.020;2023-05-10T06:28:35;16.00;99.90
43099;DHT22;28715;51.988;6.020;2023-05-10T06:31:00;16.00;99.90
43099;DHT22;28715;51.988;6.020;2023-05-10T06:33:26;16.00;99.90
43099;DHT22;28715;51.988;6.020;2023-05-10T06:35:52;15.90;99.90
43099;DHT22;28715;51.988;6.020;2023-05-10T06:38:18;15.90;99.90
43099;DHT22;28715;51.988;6.020;2023-05-10T06:40:43;15.90;99.90
43099;DHT22;28715;51.988;6.020;2023-05-10T06:43:09;15.90;99.90
43099;DHT22;28715;51.988;6.020;2023-05-10T06:45:35;15.90;99.90
43099;DHT22;28715;51.988;6.020;2023-05-10T06:48:01;15.90;99.90
43099;DHT22;28715;51.988;6.020;2023-05-10T06:50:26;15.80;99.90
43099;DHT22;28715;51.988;6.020;2023-05-10T06:52:52;15.90;99.90
43099;DHT22;28715;51.988;6.020;2023-05-10T06:55:17;15.80;99.90
43099;DHT22;28715;51.988;6.020;2023-05-10T06:57:43;15.80;99.90
43099;DHT22;28715;51.988;6.020;2023-05-10T07:00:09;15.70;99.90
43099;DHT22;28715;51.988;6.020;2023-05-10T07:02:35;15.70;99.90
43099;DHT22;28715;51.988;6.020;2023-05-10T07:05:01;15.70;99.90
43099;DHT22;28715;51.988;6.020;2023-05-10T07:07:27;15.70;99.90
43099;DHT22;28715;51.988;6.020;2023-05-10T07:09:53;15.70;99.90
43099;DHT22;28715;51.988;6.020;2023-05-10T07:12:18;15.70;99.90
43099;DHT22;28715;51.988;6.020;2023-05-10T07:14:44;15.70;99.90
43099;DHT22;28715;51.988;6.020;2023-05-10T07:17:10;15.70;99.90
43099;DHT22;28715;51.988;6.020;2023-05-10T07:19:36;15.70;99.90
43099;DHT22;28715;51.988;6.020;2023-05-10T07:22:02;15.70;99.90
43099;DHT22;28715;51.988;6.020;2023-05-10T07:24:27;15.70;99.90
43099;DHT22;28715;51.988;6.020;2023-05-10T07:26:53;15.70;99.90
43099;DHT22;28715;51.988;6.020;2023-05-10T07:29:18;15.80;99.90
43099;DHT22;28715;51.988;6.020;2023-05-10T07:31:44;15.80;99.90
43099;DHT22;28715;51.988;6.020;2023-05-10T07:34:09;15.80;99.90
43099;DHT22;28715;51.988;6.020;2023-05-10T07:36:35;15.80;99.90
43099;DHT22;28715;51.988;6.020;2023-05-10T07:39:01;15.80;99.90
43099;DHT22;28715;51.988;6.020;2023-05-10T07:41:28;15.80;99.90
43099;DHT22;28715;51.988;6.020;2023-05-10T07:43:53;15.90;99.90
43099;DHT22;28715;51.988;6.020;2023-05-10T07:46:19;16.00;99.90
43099;DHT22;28715;51.988;6.020;2023-05-10T07:48:45;16.00;99.90
43099;DHT22;28715;51.988;6.020;2023-05-10T07:51:10;16.00;99.90
43099;DHT22;28715;51.988;6.020;2023-05-10T07:53:36;16.10;99.90
43099;DHT22;28715;51.988;6.020;2023-05-10T07:56:20;16.10;99.90
43099;DHT22;28715;51.988;6.020;2023-05-10T07:58:46;16.20;99.90
43099;DHT22;28715;51.988;6.020;2023-05-10T08:01:11;16.20;99.90
43099;DHT22;28715;51.988;6.020;2023-05-10T08:03:37;16.20;99.90
43099;DHT22;28715;51.988;6.020;2023-05-10T08:06:02;16.30;99.90
43099;DHT22;28715;51.988;6.020;2023-05-10T08:08:28;16.40;99.90
43099;DHT22;28715;51.988;6.020;2023-05-10T08:10:54;16.50;99.90
43099;DHT22;28715;51.988;6.020;2023-05-10T08:13:20;16.50;99.90
43099;DHT22;28715;51.988;6.020;2023-05-10T08:15:46;16.60;99.90
43099;DHT22;28715;51.988;6.020;2023-05-10T08:18:12;16.70;99.90
43099;DHT22;28715;51.988;6.020;2023-05-10T08:20:38;16.70;99.90
43099;DHT22;28715;51.988;6.020;2023-05-10T08:23:03;16.80;99.90
43099;DHT22;28715;51.988;6.020;2023-05-10T08:25:29;16.90;99.90
43099;DHT22;28715;51.988;6.020;2023-05-10T08:27:55;16.90;99.90
43099;DHT22;28715;51.988;6.020;2023-05-10T08:30:20;17.00;99.90
43099;DHT22;28715;51.988;6.020;2023-05-10T08:32:46;17.20;99.90
43099;DHT22;28715;51.988;6.020;2023-05-10T08:35:11;17.30;99.90
43099;DHT22;28715;51.988;6.020;2023-05-10T08:37:37;17.40;99.90
43099;DHT22;28715;51.988;6.020;2023-05-10T08:40:03;17.40;99.90
43099;DHT22;28715;51.988;6.020;2023-05-10T08:42:30;17.40;99.90
43099;DHT22;28715;51.988;6.020;2023-05-10T08:44:59;17.30;99.90
43099;DHT22;28715;51.988;6.020;2023-05-10T08:47:25;17.30;99.90
43099;DHT22;28715;51.988;6.020;2023-05-10T08:49:51;17.20;99.90
43099;DHT22;28715;51.988;6.020;2023-05-10T08:52:18;17.20;99.90
43099;DHT22;28715;51.988;6.020;2023-05-10T08:54:44;17.20;99.90
43099;DHT22;28715;51.988;6.020;2023-05-10T08:57:10;17.20;99.90
43099;DHT22;28715;51.988;6.020;2023-05-10T08:59:36;17.20;99.90
43099;DHT22;28715;51.988;6.020;2023-05-10T09:02:05;17.10;99.90
43099;DHT22;28715;51.988;6.020;2023-05-10T09:04:31;17.00;99.90
43099;DHT22;28715;51.988;6.020;2023-05-10T09:06:57;16.90;99.90
43099;DHT22;28715;51.988;6.020;2023-05-10T09:09:24;16.70;99.90
43099;DHT22;28715;51.988;6.020;2023-05-10T09:11:51;16.60;99.90
43099;DHT22;28715;51.988;6.020;2023-05-10T09:14:18;16.60;99.90
43099;DHT22;28715;51.988;6.020;2023-05-10T09:16:45;16.50;99.90
43099;DHT22;28715;51.988;6.020;2023-05-10T09:19:11;16.40;99.90
43099;DHT22;28715;51.988;6.020;2023-05-10T09:21:37;16.40;99.90
43099;DHT22;28715;51.988;6.020;2023-05-10T09:24:06;16.40;99.90
43099;DHT22;28715;51.988;6.020;2023-05-10T09:26:32;16.50;99.90
43099;DHT22;28715;51.988;6.020;2023-05-10T09:28:59;16.50;99.90
43099;DHT22;28715;51.988;6.020;2023-05-10T09:31:44;16.60;99.90
43099;DHT22;28715;51.988;6.020;2023-05-10T09:34:15;16.70;99.90
43099;DHT22;28715;51.988;6.020;2023-05-10T09:36:50;16.70;99.90
43099;DHT22;28715;51.988;6.020;2023-05-10T09:39:16;16.60;99.90
43099;DHT22;28715;51.988;6.020;2023-05-10T09:41:42;16.70;99.90
43099;DHT22;28715;51.988;6.020;2023-05-10T09:44:07;16.90;99.90
43099;DHT22;28715;51.988;6.020;2023-05-10T09:46:36;17.30;99.90
43099;DHT22;28715;51.988;6.020;2023-05-10T09:49:02;17.50;99.90
43099;DHT22;28715;51.988;6.020;2023-05-10T09:51:27;17.60;99.90
43099;DHT22;28715;51.988;6.020;2023-05-10T09:54:13;17.50;99.90
43099;DHT22;28715;51.988;6.020;2023-05-10T09:56:39;17.50;99.90
43099;DHT22;28715;51.988;6.020;2023-05-10T09:59:06;17.50;99.90
43099;DHT22;28715;51.988;6.020;2023-05-10T10:01:32;17.60;99.90
43099;DHT22;28715;51.988;6.020;2023-05-10T10:03:58;17.70;99.90
43099;DHT22;28715;51.988;6.020;2023-05-10T10:06:24;17.70;99.70
43099;DHT22;28715;51.988;6.020;2023-05-10T10:08:51;17.70;99.80
43099;DHT22;28715;51.988;6.020;2023-05-10T10:11:18;17.80;99.40
43099;DHT22;28715;51.988;6.020;2023-05-10T10:13:43;17.90;99.30
43099;DHT22;28715;51.988;6.020;2023-05-10T10:16:09;18.00;98.60
43099;DHT22;28715;51.988;6.020;2023-05-10T10:18:36;18.10;98.80
43099;DHT22;28715;51.988;6.020;2023-05-10T10:21:07;18.10;98.60
43099;DHT22;28715;51.988;6.020;2023-05-10T10:23:34;18.10;98.80
43099;DHT22;28715;51.988;6.020;2023-05-10T10:26:01;18.20;99.00
43099;DHT22;28715;51.988;6.020;2023-05-10T10:28:47;18.30;99.20
43099;DHT22;28715;51.988;6.020;2023-05-10T10:31:40;18.30;98.60
43099;DHT22;28715;51.988;6.020;2023-05-10T10:34:09;18.30;98.20
43099;DHT22;28715;51.988;6.020;2023-05-10T10:36:47;18.20;97.90
43099;DHT22;28715;51.988;6.020;2023-05-10T10:39:14;18.10;98.20
43099;DHT22;28715;51.988;6.020;2023-05-10T10:41:49;18.10;98.30
43099;DHT22;28715;51.988;6.020;2023-05-10T10:47:05;18.10;98.30
43099;DHT22;28715;51.988;6.020;2023-05-10T10:49:41;18.00;98.00
43099;DHT22;28715;51.988;6.020;2023-05-10T10:54:52;17.80;97.90
43099;DHT22;28715;51.988;6.020;2023-05-10T10:57:19;17.80;98.00
43099;DHT22;28715;51.988;6.020;2023-05-10T10:59:45;17.80;98.40
43099;DHT22;28715;51.988;6.020;2023-05-10T11:02:33;17.70;98.30
43099;DHT22;28715;51.988;6.020;2023-05-10T11:05:08;17.80;98.90
43099;DHT22;28715;51.988;6.020;2023-05-10T11:07:57;17.80;98.60
43099;DHT22;28715;51.988;6.020;2023-05-10T11:10:24;17.90;98.60
43099;DHT22;28715;51.988;6.020;2023-05-10T11:13:04;18.00;98.60
43099;DHT22;28715;51.988;6.020;2023-05-10T11:15:34;18.20;98.40
43099;DHT22;28715;51.988;6.020;2023-05-10T11:18:17;18.20;98.20
43099;DHT22;28715;51.988;6.020;2023-05-10T11:20:43;18.40;98.20
43099;DHT22;28715;51.988;6.020;2023-05-10T11:23:14;18.50;97.90
43099;DHT22;28715;51.988;6.020;2023-05-10T11:25:44;18.50;97.70
43099;DHT22;28715;51.988;6.020;2023-05-10T11:28:11;18.60;97.60
43099;DHT22;28715;51.988;6.020;2023-05-10T11:30:41;18.60;97.20
43099;DHT22;28715;51.988;6.020;2023-05-10T11:33:09;18.60;97.30
43099;DHT22;28715;51.988;6.020;2023-05-10T11:35:38;18.70;97.40
43099;DHT22;28715;51.988;6.020;2023-05-10T11:38:14;18.80;97.40
43099;DHT22;28715;51.988;6.020;2023-05-10T11:40:40;18.80;97.30
43099;DHT22;28715;51.988;6.020;2023-05-10T11:43:06;18.90;97.00
43099;DHT22;28715;51.988;6.020;2023-05-10T11:45:34;19.00;97.40
43099;DHT22;28715;51.988;6.020;2023-05-10T11:48:00;19.10;97.50
43099;DHT22;28715;51.988;6.020;2023-05-10T11:50:26;19.30;97.00
43099;DHT22;28715;51.988;6.020;2023-05-10T11:52:53;19.40;96.80
43099;DHT22;28715;51.988;6.020;2023-05-10T11:55:19;19.60;96.80
43099;DHT22;28715;51.988;6.020;2023-05-10T11:57:45;19.70;96.50
43099;DHT22;28715;51.988;6.020;2023-05-10T12:00:14;19.70;95.90
43099;DHT22;28715;51.988;6.020;2023-05-10T12:02:40;19.70;96.00
43099;DHT22;28715;51.988;6.020;2023-05-10T12:05:06;19.60;96.00
43099;DHT22;28715;51.988;6.020;2023-05-10T12:07:32;19.60;96.30
43099;DHT22;28715;51.988;6.020;2023-05-10T12:10:09;19.60;95.40
43099;DHT22;28715;51.988;6.020;2023-05-10T12:12:46;19.60;95.30
43099;DHT22;28715;51.988;6.020;2023-05-10T12:15:21;19.40;95.30
43099;DHT22;28715;51.988;6.020;2023-05-10T12:17:48;19.30;95.60
43099;DHT22;28715;51.988;6.020;2023-05-10T12:22:40;19.40;96.30
43099;DHT22;28715;51.988;6.020;2023-05-10T12:25:07;19.50;96.10
43099;DHT22;28715;51.988;6.020;2023-05-10T12:27:33;19.60;96.00
43099;DHT22;28715;51.988;6.020;2023-05-10T12:29:59;19.60;96.10
43099;DHT22;28715;51.988;6.020;2023-05-10T12:32:44;19.50;95.50
43099;DHT22;28715;51.988;6.020;2023-05-10T12:35:09;19.30;95.00
43099;DHT22;28715;51.988;6.020;2023-05-10T12:37:35;19.10;95.50
43099;DHT22;28715;51.988;6.020;2023-05-10T12:40:06;19.00;95.60
43099;DHT22;28715;51.988;6.020;2023-05-10T12:42:32;19.00;96.10
43099;DHT22;28715;51.988;6.020;2023-05-10T12:44:57;19.10;96.80
43099;DHT22;28715;51.988;6.020;2023-05-10T12:47:23;19.30;96.80
43099;DHT22;28715;51.988;6.020;2023-05-10T12:49:48;19.50;96.30
43099;DHT22;28715;51.988;6.020;2023-05-10T12:52:14;19.60;95.40
43099;DHT22;28715;51.988;6.020;2023-05-10T12:54:39;19.70;95.60
43099;DHT22;28715;51.988;6.020;2023-05-10T12:57:05;19.90;95.60
43099;DHT22;28715;51.988;6.020;2023-05-10T12:59:31;20.00;94.90
43099;DHT22;28715;51.988;6.020;2023-05-10T13:01:57;20.10;94.90
43099;DHT22;28715;51.988;6.020;2023-05-10T13:04:23;20.20;94.30
43099;DHT22;28715;51.988;6.020;2023-05-10T13:06:48;20.30;94.30
43099;DHT22;28715;51.988;6.020;2023-05-10T13:09:14;20.30;94.60
43099;DHT22;28715;51.988;6.020;2023-05-10T13:11:40;20.30;95.00
43099;DHT22;28715;51.988;6.020;2023-05-10T13:14:06;20.30;95.00
43099;DHT22;28715;51.988;6.020;2023-05-10T13:16:31;20.30;94.70
43099;DHT22;28715;51.988;6.020;2023-05-10T13:18:57;20.40;94.50
43099;DHT22;28715;51.988;6.020;2023-05-10T13:21:23;20.40;93.90
43099;DHT22;28715;51.988;6.020;2023-05-10T13:23:50;20.30;93.80
43099;DHT22;28715;51.988;6.020;2023-05-10T13:26:16;20.20;94.00
43099;DHT22;28715;51.988;6.020;2023-05-10T13:28:41;20.20;94.10
43099;DHT22;28715;51.988;6.020;2023-05-10T13:31:07;20.10;94.80
43099;DHT22;28715;51.988;6.020;2023-05-10T13:33:33;20.00;94.90
43099;DHT22;28715;51.988;6.020;2023-05-10T13:35:58;19.90;95.30
43099;DHT22;28715;51.988;6.020;2023-05-10T13:38:24;19.90;95.60
43099;DHT22;28715;51.988;6.020;2023-05-10T13:40:50;20.00;94.40
43099;DHT22;28715;51.988;6.020;2023-05-10T13:43:18;19.90;94.70
43099;DHT22;28715;51.988;6.020;2023-05-10T13:45:44;19.90;95.00
43099;DHT22;28715;51.988;6.020;2023-05-10T13:48:09;20.00;95.10
43099;DHT22;28715;51.988;6.020;2023-05-10T13:50:35;20.00;94.60
43099;DHT22;28715;51.988;6.020;2023-05-10T13:53:00;19.90;95.20
43099;DHT22;28715;51.988;6.020;2023-05-10T13:55:26;19.90;95.20
43099;DHT22;28715;51.988;6.020;2023-05-10T13:57:51;19.90;95.10
43099;DHT22;28715;51.988;6.020;2023-05-10T14:00:17;19.80;94.90
43099;DHT22;28715;51.988;6.020;2023-05-10T14:02:43;19.80;94.80
43099;DHT22;28715;51.988;6.020;2023-05-10T14:05:08;19.80;95.10
43099;DHT22;28715;51.988;6.020;2023-05-10T14:07:34;19.70;95.10
43099;DHT22;28715;51.988;6.020;2023-05-10T14:10:00;19.70;95.40
43099;DHT22;28715;51.988;6.020;2023-05-10T14:12:25;19.60;95.60
43099;DHT22;28715;51.988;6.020;2023-05-10T14:14:51;19.60;96.10
43099;DHT22;28715;51.988;6.020;2023-05-10T14:17:17;19.50;96.50
43099;DHT22;28715;51.988;6.020;2023-05-10T14:19:44;19.50;96.60
43099;DHT22;28715;51.988;6.020;2023-05-10T14:22:09;19.50;96.20
43099;DHT22;28715;51.988;6.020;2023-05-10T14:24:35;19.40;96.40
43099;DHT22;28715;51.988;6.020;2023-05-10T14:27:01;19.50;96.50
43099;DHT22;28715;51.988;6.020;2023-05-10T14:29:26;19.50;96.70
43099;DHT22;28715;51.988;6.020;2023-05-10T14:31:52;19.60;96.80
43099;DHT22;28715;51.988;6.020;2023-05-10T14:34:18;19.60;96.80
43099;DHT22;28715;51.988;6.020;2023-05-10T14:36:43;19.50;96.70
43099;DHT22;28715;51.988;6.020;2023-05-10T14:39:09;19.40;96.70
43099;DHT22;28715;51.988;6.020;2023-05-10T14:41:35;19.40;96.40
43099;DHT22;28715;51.988;6.020;2023-05-10T14:44:01;19.30;96.40
43099;DHT22;28715;51.988;6.020;2023-05-10T14:46:28;19.30;96.60
43099;DHT22;28715;51.988;6.020;2023-05-10T14:48:55;19.20;96.60
43099;DHT22;28715;51.988;6.020;2023-05-10T14:51:20;19.20;96.90
43099;DHT22;28715;51.988;6.020;2023-05-10T14:53:48;19.20;97.10
43099;DHT22;28715;51.988;6.020;2023-05-10T14:56:14;19.30;97.10
43099;DHT22;28715;51.988;6.020;2023-05-10T14:58:39;19.30;97.00
43099;DHT22;28715;51.988;6.020;2023-05-10T15:01:05;19.20;96.50
43099;DHT22;28715;51.988;6.020;2023-05-10T15:03:31;19.10;96.90
43099;DHT22;28715;51.988;6.020;2023-05-10T15:05:56;18.90;96.80
43099;DHT22;28715;51.988;6.020;2023-05-10T15:08:23;18.80;97.20
43099;DHT22;28715;51.988;6.020;2023-05-10T15:10:50;18.70;97.40
43099;DHT22;28715;51.988;6.020;2023-05-10T15:13:16;18.50;97.60
43099;DHT22;28715;51.988;6.020;2023-05-10T15:15:41;18.50;98.00
43099;DHT22;28715;51.988;6.020;2023-05-10T15:18:09;18.40;97.80
43099;DHT22;28715;51.988;6.020;2023-05-10T15:20:34;18.30;98.30
43099;DHT22;28715;51.988;6.020;2023-05-10T15:23:00;18.20;98.30
43099;DHT22;28715;51.988;6.020;2023-05-10T15:25:26;18.20;98.40
43099;DHT22;28715;51.988;6.020;2023-05-10T15:27:53;18.10;98.40
43099;DHT22;28715;51.988;6.020;2023-05-10T15:30:18;18.00;98.60
43099;DHT22;28715;51.988;6.020;2023-05-10T15:32:44;17.80;98.60
43099;DHT22;28715;51.988;6.020;2023-05-10T15:35:09;17.80;98.60
43099;DHT22;28715;51.988;6.020;2023-05-10T15:37:35;17.70;98.50
43099;DHT22;28715;51.988;6.020;2023-05-10T15:40:01;17.70;98.60
43099;DHT22;28715;51.988;6.020;2023-05-10T15:42:30;17.70;98.60
43099;DHT22;28715;51.988;6.020;2023-05-10T15:44:57;17.70;98.40
43099;DHT22;28715;51.988;6.020;2023-05-10T15:47:23;17.70;98.50
43099;DHT22;28715;51.988;6.020;2023-05-10T15:49:48;17.70;98.70
43099;DHT22;28715;51.988;6.020;2023-05-10T15:52:14;17.70;98.70
43099;DHT22;28715;51.988;6.020;2023-05-10T15:54:39;17.70;98.70